Time;durP1;ratioP1;P1;durP2;ratioP2;P2;SDS_P1;SDS_P2;PMS_P1;PMS_P2;Temp;Humidity;BMP_temperature;BMP_pressure;BME280_temperature;BME280_humidity;BME280_pressure;Samples;Min_cycle;Max_cycle;Signal;HPM_P1;HPM_P2
2021/08/28 00:01:39;;;;;;;1.20;0.90;;;18.60;99.90;;;;;;5062001;28;20454;-80
2021/08/28 00:04:07;;;;;;;1.10;1.00;;;18.60;99.90;;;;;;5069967;28;20566;-79
2021/08/28 00:06:37;;;;;;;2.03;1.20;;;18.60;99.90;;;;;;5071656;28;20454;-79
2021/08/28 00:09:05;;;;;;;1.37;0.90;;;18.50;99.90;;;;;;5070587;28;20533;-79
2021/08/28 00:11:33;;;;;;;1.30;1.00;;;18.50;99.90;;;;;;5072838;28;20578;-77
2021/08/28 00:14:01;;;;;;;1.60;1.00;;;18.50;99.90;;;;;;5083407;28;21068;-79
2021/08/28 00:16:30;;;;;;;1.67;1.10;;;18.50;99.90;;;;;;5070699;28;20475;-78
2021/08/28 00:18:58;;;;;;;1.20;1.10;;;18.50;99.90;;;;;;5068626;28;20546;-79
2021/08/28 00:21:26;;;;;;;1.13;1.03;;;18.50;99.90;;;;;;5070512;28;20451;-79
2021/08/28 00:23:56;;;;;;;1.20;1.10;;;18.50;99.90;;;;;;5069952;28;20524;-79
2021/08/28 00:26:24;;;;;;;3.50;1.10;;;18.50;99.90;;;;;;5079153;28;20452;-79
2021/08/28 00:28:52;;;;;;;1.40;0.97;;;18.50;99.90;;;;;;5066769;28;20454;-79
2021/08/28 00:31:20;;;;;;;1.40;1.07;;;18.50;99.90;;;;;;5087587;28;20557;-80
2021/08/28 00:33:48;;;;;;;1.90;1.20;;;18.50;99.90;;;;;;5086544;28;20458;-79
2021/08/28 00:36:17;;;;;;;1.17;0.90;;;18.50;99.90;;;;;;5069838;28;20467;-79
2021/08/28 00:38:47;;;;;;;1.10;1.00;;;18.40;99.90;;;;;;5075191;28;20446;-79
2021/08/28 00:41:17;;;;;;;1.10;1.10;;;18.40;99.90;;;;;;5076822;28;20466;-79
2021/08/28 00:43:45;;;;;;;1.80;1.20;;;18.40;99.90;;;;;;5069647;28;20511;-79
2021/08/28 00:46:13;;;;;;;3.23;1.10;;;18.40;99.90;;;;;;5070008;28;20927;-79
2021/08/28 00:48:41;;;;;;;1.97;1.10;;;18.40;99.90;;;;;;5075469;28;21184;-79
2021/08/28 00:51:10;;;;;;;1.93;1.07;;;18.40;99.90;;;;;;5069276;28;20447;-80
2021/08/28 00:53:38;;;;;;;1.90;0.90;;;18.40;99.90;;;;;;5070199;28;21005;-79
2021/08/28 00:56:06;;;;;;;1.47;0.90;;;18.40;99.90;;;;;;5069918;28;20474;-80
2021/08/28 00:58:35;;;;;;;1.77;0.80;;;18.30;99.90;;;;;;5069755;28;20454;-79
2021/08/28 01:01:09;;;;;;;1.67;1.23;;;18.30;99.90;;;;;;5071172;28;20462;-79
2021/08/28 01:03:42;;;;;;;0.93;0.90;;;18.40;99.90;;;;;;5079413;28;20481;-80
2021/08/28 01:06:16;;;;;;;2.57;1.10;;;18.40;99.90;;;;;;5080480;28;20453;-81
2021/08/28 01:08:46;;;;;;;1.10;0.93;;;18.40;99.90;;;;;;5073085;28;20446;-80
2021/08/28 01:11:21;;;;;;;0.93;0.83;;;18.30;99.90;;;;;;5065275;28;20451;-79
2021/08/28 01:13:54;;;;;;;1.60;1.07;;;18.30;99.90;;;;;;5058564;28;20507;-78
2021/08/28 01:16:23;;;;;;;0.90;0.90;;;18.30;99.90;;;;;;5070933;28;20486;-79
2021/08/28 01:18:53;;;;;;;1.37;0.83;;;18.30;99.90;;;;;;5069106;28;20447;-79
2021/08/28 01:21:28;;;;;;;1.90;1.00;;;18.30;99.90;;;;;;5051031;28;20447;-79
2021/08/28 01:23:59;;;;;;;3.23;1.00;;;18.30;99.90;;;;;;5075672;28;20489;-79
2021/08/28 01:26:34;;;;;;;2.63;1.00;;;18.30;1.00;;;;;;5056520;28;20447;-81
2021/08/28 01:29:14;;;;;;;1.37;0.80;;;18.30;99.90;;;;;;5068454;28;20454;-80
2021/08/28 01:31:43;;;;;;;1.53;1.43;;;18.30;99.90;;;;;;5076543;28;20482;-79
2021/08/28 01:34:12;;;;;;;1.40;1.03;;;18.30;99.90;;;;;;5069738;28;20478;-80
2021/08/28 01:36:41;;;;;;;1.47;1.10;;;18.30;99.90;;;;;;5081820;28;20484;-78
2021/08/28 01:39:11;;;;;;;1.10;1.00;;;18.20;99.90;;;;;;5081215;28;20457;-80
2021/08/28 01:41:42;;;;;;;1.23;1.13;;;18.20;1.00;;;;;;5077884;28;20443;-80
2021/08/28 01:44:14;;;;;;;1.53;1.43;;;18.20;1.00;;;;;;5077781;28;20461;-79
2021/08/28 01:46:43;;;;;;;1.40;1.30;;;18.20;1.00;;;;;;5084090;28;21016;-79
2021/08/28 01:49:13;;;;;;;1.40;1.30;;;18.30;1.00;;;;;;5085290;28;21026;-79
2021/08/28 01:51:42;;;;;;;1.23;1.13;;;18.30;99.90;;;;;;5076526;28;20457;-79
2021/08/28 01:54:10;;;;;;;2.30;1.40;;;18.20;1.00;;;;;;5069102;28;20473;-80
2021/08/28 01:56:38;;;;;;;1.80;1.40;;;18.20;1.00;;;;;;5069661;28;20539;-79
2021/08/28 01:59:06;;;;;;;2.73;1.30;;;18.20;1.00;;;;;;5061437;28;21061;-79
2021/08/28 02:01:36;;;;;;;3.73;1.47;;;18.20;1.00;;;;;;5086280;28;20445;-79
2021/08/28 02:04:05;;;;;;;1.60;1.50;;;18.20;1.00;;;;;;5081322;28;20469;-80
2021/08/28 02:06:44;;;;;;;3.50;2.37;;;18.20;1.00;;;;;;5077842;28;20789;-78
2021/08/28 02:09:21;;;;;;;2.23;1.60;;;18.30;99.90;;;;;;5069053;28;20454;-79
2021/08/28 02:11:58;;;;;;;2.40;1.70;;;18.20;99.90;;;;;;5081316;28;20514;-79
2021/08/28 02:14:33;;;;;;;2.20;1.80;;;18.20;1.00;;;;;;5071938;28;21129;-78
2021/08/28 02:17:07;;;;;;;2.57;1.93;;;18.10;1.00;;;;;;5074180;28;21058;-79
2021/08/28 02:19:40;;;;;;;2.00;1.90;;;18.20;1.00;;;;;;5068729;28;20466;-79
2021/08/28 02:22:12;;;;;;;1.87;1.50;;;18.10;1.00;;;;;;5084841;28;20461;-79
2021/08/28 02:24:43;;;;;;;2.00;1.80;;;18.10;1.00;;;;;;5070008;28;21000;-79
2021/08/28 02:27:18;;;;;;;4.20;2.10;;;18.10;1.00;;;;;;5069448;28;20508;-78
2021/08/28 02:29:53;;;;;;;1.67;1.57;;;18.10;1.00;;;;;;5066760;28;20465;-78
2021/08/28 02:32:24;;;;;;;1.80;1.67;;;18.10;1.00;;;;;;5068736;28;20449;-78
2021/08/28 02:34:54;;;;;;;2.30;1.97;;;18.10;1.00;;;;;;5069651;28;20458;-78
2021/08/28 02:37:24;;;;;;;2.07;1.87;;;18.10;1.00;;;;;;5070802;28;20527;-76
2021/08/28 02:39:54;;;;;;;2.60;2.40;;;18.10;1.00;;;;;;5088841;28;20563;-78
2021/08/28 02:42:22;;;;;;;2.40;2.20;;;18.10;1.00;;;;;;5076680;28;20454;-78
2021/08/28 02:44:51;;;;;;;4.70;3.33;;;18.00;1.00;;;;;;5053508;28;20474;-78
2021/08/28 02:47:21;;;;;;;4.90;2.30;;;18.10;1.00;;;;;;5074073;28;20515;-79
2021/08/28 02:49:53;;;;;;;2.50;2.10;;;18.10;1.00;;;;;;5070077;28;20594;-80
2021/08/28 02:52:23;;;;;;;2.03;1.90;;;18.10;1.00;;;;;;5090121;28;21282;-79
2021/08/28 02:54:53;;;;;;;1.90;1.80;;;18.10;1.00;;;;;;5087098;28;20570;-79
2021/08/28 02:57:23;;;;;;;2.10;1.90;;;18.10;1.00;;;;;;5081319;28;20486;-80
2021/08/28 02:59:52;;;;;;;3.73;2.37;;;18.00;1.00;;;;;;5068413;28;20502;-77
2021/08/28 03:02:21;;;;;;;3.10;2.57;;;18.00;1.00;;;;;;5072816;28;20876;-78
2021/08/28 03:04:51;;;;;;;2.57;2.37;;;18.00;1.00;;;;;;5083746;28;20484;-79
2021/08/28 03:07:20;;;;;;;2.50;2.27;;;18.00;1.00;;;;;;5074186;28;20447;-79
2021/08/28 03:09:50;;;;;;;3.00;2.70;;;18.00;1.00;;;;;;5071436;28;20541;-79
2021/08/28 03:12:19;;;;;;;3.07;2.40;;;18.10;1.00;;;;;;5054918;28;20507;-79
2021/08/28 03:14:47;;;;;;;2.60;2.40;;;18.00;1.00;;;;;;5086939;28;20535;-79
2021/08/28 03:17:16;;;;;;;3.87;3.50;;;18.00;1.00;;;;;;5071828;28;20565;-79
2021/08/28 03:19:47;;;;;;;4.70;3.00;;;18.00;1.00;;;;;;5052362;28;20478;-79
2021/08/28 03:22:20;;;;;;;3.93;3.20;;;18.00;1.00;;;;;;5077470;28;20468;-79
2021/08/28 03:24:49;;;;;;;3.20;2.90;;;18.00;1.00;;;;;;5054788;28;20561;-79
2021/08/28 03:27:19;;;;;;;3.00;2.70;;;18.00;1.00;;;;;;5077985;28;20544;-78
2021/08/28 03:29:50;;;;;;;3.57;3.27;;;18.00;1.00;;;;;;5084108;28;20460;-79
2021/08/28 03:32:19;;;;;;;6.03;3.27;;;18.00;1.00;;;;;;5072432;28;20458;-78
2021/08/28 03:34:48;;;;;;;6.50;3.80;;;18.00;1.00;;;;;;5068329;28;20503;-78
2021/08/28 03:37:19;;;;;;;3.23;2.83;;;17.90;1.00;;;;;;5071742;28;21011;-78
2021/08/28 03:39:48;;;;;;;3.90;3.50;;;17.90;1.00;;;;;;5070413;28;20595;-77
2021/08/28 03:42:16;;;;;;;6.53;3.60;;;17.90;1.00;;;;;;5053916;28;20458;-78
2021/08/28 03:44:44;;;;;;;4.43;4.03;;;18.00;1.00;;;;;;5068269;28;20469;-78
2021/08/28 03:47:15;;;;;;;4.60;4.20;;;17.90;1.00;;;;;;5070882;28;20529;-79
2021/08/28 03:49:43;;;;;;;5.03;4.00;;;18.00;1.00;;;;;;5078873;28;20493;-78
2021/08/28 03:52:11;;;;;;;4.43;4.03;;;17.90;1.00;;;;;;5089211;28;20460;-79
2021/08/28 03:54:41;;;;;;;5.03;4.43;;;17.90;1.00;;;;;;5062422;28;20462;-78
2021/08/28 03:57:09;;;;;;;4.10;3.70;;;17.90;1.00;;;;;;5069301;28;20459;-78
2021/08/28 03:59:37;;;;;;;5.40;4.30;;;17.90;1.00;;;;;;5072675;28;20458;-79
2021/08/28 04:02:05;;;;;;;5.90;4.23;;;17.90;1.00;;;;;;5086299;28;21096;-79
2021/08/28 04:04:34;;;;;;;7.23;4.77;;;17.90;1.00;;;;;;5080247;28;20560;-78
2021/08/28 04:07:02;;;;;;;4.90;4.50;;;17.90;1.00;;;;;;5076570;28;20442;-79
2021/08/28 04:09:30;;;;;;;5.60;3.97;;;17.90;1.00;;;;;;5079618;28;20462;-78
2021/08/28 04:12:00;;;;;;;5.20;4.63;;;17.90;1.00;;;;;;5073537;28;20465;-79
2021/08/28 04:14:28;;;;;;;4.70;3.80;;;17.90;1.00;;;;;;5082522;28;20465;-77
2021/08/28 04:16:56;;;;;;;4.83;4.43;;;17.90;1.00;;;;;;5071365;28;20967;-79
2021/08/28 04:19:24;;;;;;;5.27;4.60;;;17.90;1.00;;;;;;5080929;28;20463;-79
2021/08/28 04:21:52;;;;;;;6.20;5.60;;;17.80;1.00;;;;;;5089027;28;20462;-79
2021/08/28 04:24:20;;;;;;;6.60;5.33;;;17.80;1.00;;;;;;5075327;28;20523;-80
2021/08/28 04:26:49;;;;;;;5.13;4.57;;;17.90;1.00;;;;;;5072769;28;20468;-79
2021/08/28 04:29:18;;;;;;;5.30;4.90;;;17.80;1.00;;;;;;5076320;28;20450;-78
2021/08/28 04:31:46;;;;;;;5.13;4.50;;;17.90;1.00;;;;;;5069622;28;20450;-78
2021/08/28 04:34:14;;;;;;;5.80;4.80;;;17.90;1.00;;;;;;5082251;28;20477;-79
2021/08/28 04:36:42;;;;;;;4.90;4.50;;;17.90;1.00;;;;;;5071825;28;20479;-79
2021/08/28 04:39:11;;;;;;;5.83;5.33;;;17.90;1.00;;;;;;5069312;28;20521;-78
2021/08/28 04:41:39;;;;;;;5.57;4.20;;;17.80;1.00;;;;;;5069304;28;20883;-79
2021/08/28 04:44:07;;;;;;;4.80;4.40;;;17.90;1.00;;;;;;5072150;28;21009;-78
2021/08/28 04:46:36;;;;;;;5.40;4.53;;;17.90;1.00;;;;;;5068732;28;20462;-78
2021/08/28 04:49:05;;;;;;;5.70;5.10;;;17.90;1.00;;;;;;5069629;28;20927;-78
2021/08/28 04:51:33;;;;;;;6.30;5.20;;;17.80;1.00;;;;;;5076346;28;20452;-78
2021/08/28 04:54:01;;;;;;;5.60;5.10;;;17.80;1.00;;;;;;5071256;28;20462;-78
2021/08/28 04:56:29;;;;;;;5.33;4.83;;;17.80;1.00;;;;;;5069174;28;20470;-79
2021/08/28 04:58:57;;;;;;;5.33;4.83;;;17.80;1.00;;;;;;5069255;28;20534;-79
2021/08/28 05:01:25;;;;;;;6.40;5.77;;;17.80;1.00;;;;;;5071860;28;20462;-78
2021/08/28 05:03:55;;;;;;;8.07;5.70;;;17.80;1.00;;;;;;5086419;28;20553;-79
2021/08/28 05:06:23;;;;;;;6.00;5.47;;;17.80;1.00;;;;;;5084222;28;20465;-78
2021/08/28 05:08:52;;;;;;;7.37;5.80;;;17.80;1.00;;;;;;5050624;28;20507;-79
2021/08/28 05:11:20;;;;;;;7.37;6.60;;;17.70;1.00;;;;;;5072610;28;20519;-78
2021/08/28 05:13:48;;;;;;;7.43;5.90;;;17.70;10.30;;;;;;5064896;28;20526;-78
2021/08/28 05:16:16;;;;;;;7.63;6.60;;;17.80;9.20;;;;;;5074650;28;20461;-78
2021/08/28 05:18:44;;;;;;;6.70;5.23;;;17.80;4.80;;;;;;5068477;28;20465;-79
2021/08/28 05:21:14;;;;;;;5.73;5.17;;;17.80;1.00;;;;;;5085477;28;20454;-80
2021/08/28 05:23:42;;;;;;;6.57;5.97;;;17.80;1.00;;;;;;5063424;28;20493;-79
2021/08/28 05:26:10;;;;;;;7.80;6.53;;;17.90;1.00;;;;;;5076224;28;20462;-78
2021/08/28 05:28:38;;;;;;;6.30;5.60;;;17.90;1.00;;;;;;5067617;28;20465;-78
2021/08/28 05:31:06;;;;;;;5.83;5.30;;;17.80;1.00;;;;;;5068493;28;20886;-76
2021/08/28 05:33:35;;;;;;;7.83;5.23;;;17.80;1.00;;;;;;5067276;28;22516;-77
2021/08/28 05:36:03;;;;;;;5.47;5.00;;;17.80;1.00;;;;;;5067903;28;20502;-78
2021/08/28 05:38:32;;;;;;;6.13;5.53;;;17.80;1.00;;;;;;5067844;28;20508;-79
2021/08/28 05:41:01;;;;;;;5.97;5.37;;;17.80;1.00;;;;;;5074493;28;20499;-78
2021/08/28 05:43:29;;;;;;;7.80;5.60;;;17.90;1.00;;;;;;5086708;28;20538;-78
2021/08/28 05:45:57;;;;;;;6.27;5.60;;;17.90;1.00;;;;;;5074118;28;20470;-79
2021/08/28 05:48:25;;;;;;;6.00;5.10;;;17.80;1.00;;;;;;5068352;28;20450;-79
2021/08/28 05:50:53;;;;;;;5.93;5.33;;;17.80;1.00;;;;;;5077494;28;20933;-78
2021/08/28 05:53:22;;;;;;;5.10;4.60;;;17.90;1.00;;;;;;5070796;28;21058;-78
2021/08/28 05:55:51;;;;;;;6.47;5.00;;;17.90;1.00;;;;;;5069662;28;20462;-78
2021/08/28 05:58:19;;;;;;;5.37;4.87;;;17.90;1.00;;;;;;5069509;28;20518;-79
2021/08/28 06:00:47;;;;;;;4.87;4.40;;;17.90;1.00;;;;;;5077875;28;20455;-81
2021/08/28 06:03:17;;;;;;;5.87;5.27;;;17.90;1.00;;;;;;5054337;28;20457;-80
2021/08/28 06:05:47;;;;;;;5.73;5.17;;;17.80;1.00;;;;;;5075517;28;20464;-82
2021/08/28 06:08:15;;;;;;;4.13;3.83;;;17.90;1.00;;;;;;5074198;28;20442;-81
2021/08/28 06:10:43;;;;;;;5.80;5.20;;;17.90;1.00;;;;;;5073499;28;20856;-81
2021/08/28 06:13:13;;;;;;;5.27;4.80;;;17.90;1.00;;;;;;5088878;28;20442;-82
2021/08/28 06:15:41;;;;;;;5.03;4.57;;;17.90;1.00;;;;;;5073738;28;20461;-81
2021/08/28 06:18:09;;;;;;;5.90;4.27;;;18.00;1.00;;;;;;5066286;28;20996;-80
2021/08/28 06:20:37;;;;;;;4.10;3.80;;;18.00;1.00;;;;;;5075912;28;21003;-82
2021/08/28 06:23:06;;;;;;;5.97;4.10;;;18.00;1.00;;;;;;5079641;28;21163;-82
2021/08/28 06:25:34;;;;;;;4.10;3.70;;;18.00;1.00;;;;;;5072837;28;20469;-81
2021/08/28 06:28:02;;;;;;;4.93;4.40;;;18.00;1.00;;;;;;5069292;28;20510;-81
2021/08/28 06:30:32;;;;;;;6.23;5.37;;;17.90;1.00;;;;;;5073946;28;20466;-82
2021/08/28 06:33:00;;;;;;;6.10;5.20;;;17.90;1.00;;;;;;5081824;28;20475;-81
2021/08/28 06:35:28;;;;;;;5.47;4.93;;;18.00;1.00;;;;;;5088678;28;20871;-82
2021/08/28 06:37:56;;;;;;;4.93;4.50;;;17.90;1.00;;;;;;5080939;28;20495;-82
2021/08/28 06:40:24;;;;;;;6.97;4.77;;;17.90;1.00;;;;;;5079273;28;20477;-81
2021/08/28 06:42:53;;;;;;;4.90;4.50;;;17.90;1.00;;;;;;5074580;28;20929;-82
2021/08/28 06:45:21;;;;;;;4.67;3.97;;;17.90;1.00;;;;;;5084673;28;20473;-83
2021/08/28 06:47:50;;;;;;;4.80;4.30;;;17.90;1.00;;;;;;5080936;28;20458;-82
2021/08/28 06:50:19;;;;;;;5.10;4.60;;;18.00;1.00;;;;;;5070332;28;20528;-82
2021/08/28 06:52:47;;;;;;;5.03;4.63;;;18.10;1.00;;;;;;5074397;28;20442;-81
2021/08/28 06:55:15;;;;;;;4.47;4.07;;;18.10;1.00;;;;;;5076523;28;20454;-85
2021/08/28 06:57:43;;;;;;;5.20;4.70;;;18.10;1.00;;;;;;5065582;28;20454;-83
2021/08/28 07:00:13;;;;;;;5.23;4.73;;;18.20;1.00;;;;;;5063164;28;20478;-83
2021/08/28 07:02:43;;;;;;;5.10;4.53;;;18.20;1.00;;;;;;5066857;28;20450;-82
2021/08/28 07:05:13;;;;;;;4.43;4.03;;;18.30;1.00;;;;;;5067869;28;20565;-81
2021/08/28 07:07:42;;;;;;;8.93;4.67;;;18.30;1.00;;;;;;5077439;28;20880;-80
2021/08/28 07:10:12;;;;;;;5.70;5.00;;;18.30;1.00;;;;;;5078392;28;20454;-81
2021/08/28 07:12:40;;;;;;;4.40;4.03;;;18.40;1.00;;;;;;5076673;28;20450;-82
2021/08/28 07:15:09;;;;;;;5.20;4.20;;;18.30;1.00;;;;;;5072149;28;20998;-83
2021/08/28 07:17:37;;;;;;;4.50;4.07;;;18.40;1.00;;;;;;5058554;28;20458;-81
2021/08/28 07:20:07;;;;;;;4.90;4.37;;;18.40;1.00;;;;;;5074731;28;20862;-82
2021/08/28 07:22:37;;;;;;;4.77;4.27;;;18.50;1.00;;;;;;5077719;28;20457;-80
2021/08/28 07:25:06;;;;;;;12.07;7.10;;;18.50;1.00;;;;;;5092139;28;21113;-81
2021/08/28 07:27:34;;;;;;;6.13;5.00;;;18.60;1.00;;;;;;5084665;28;20446;-80
2021/08/28 07:30:03;;;;;;;5.83;5.00;;;18.60;1.00;;;;;;5072799;28;20443;-83
2021/08/28 07:32:36;;;;;;;4.27;3.40;;;18.60;1.00;;;;;;5067339;28;20458;-82
2021/08/28 07:35:05;;;;;;;3.80;3.50;;;18.70;1.00;;;;;;5072766;28;20463;-82
2021/08/28 07:37:33;;;;;;;4.20;3.40;;;18.70;1.00;;;;;;5072607;28;20450;-82
2021/08/28 07:40:04;;;;;;;3.23;2.93;;;18.80;99.90;;;;;;5066005;28;20224;-83
2021/08/28 07:42:52;;;;;;;3.17;2.87;;;18.90;99.90;;;;;;5081003;28;20489;-82
2021/08/28 07:45:20;;;;;;;3.53;2.93;;;19.00;99.90;;;;;;5071607;28;20470;-81
2021/08/28 07:47:48;;;;;;;2.27;2.03;;;19.00;99.90;;;;;;5075757;28;20461;-81
2021/08/28 07:50:17;;;;;;;2.03;1.93;;;19.00;99.90;;;;;;5070875;28;20477;-81
2021/08/28 07:52:45;;;;;;;2.00;1.80;;;19.00;99.90;;;;;;5072615;28;20958;-81
2021/08/28 07:55:16;;;;;;;1.87;1.70;;;19.00;99.90;;;;;;5072375;28;20519;-83
2021/08/28 07:57:44;;;;;;;1.20;1.10;;;19.00;99.90;;;;;;5082744;28;20459;-82
2021/08/28 08:00:14;;;;;;;1.70;1.60;;;19.00;99.90;;;;;;5072011;28;20478;-81
2021/08/28 08:02:42;;;;;;;2.10;1.50;;;19.00;99.90;;;;;;5059291;28;20466;-82
2021/08/28 08:05:11;;;;;;;1.53;1.30;;;19.00;99.90;;;;;;5078067;28;20477;-80
2021/08/28 08:07:40;;;;;;;2.33;1.60;;;18.90;99.90;;;;;;5079428;28;20466;-80
2021/08/28 08:10:09;;;;;;;1.80;1.50;;;19.00;99.90;;;;;;5059258;28;20878;-80
2021/08/28 08:12:38;;;;;;;1.70;1.60;;;19.00;99.90;;;;;;5077171;28;20453;-81
2021/08/28 08:15:07;;;;;;;2.20;1.70;;;19.10;99.90;;;;;;5072743;28;20488;-79
2021/08/28 08:17:36;;;;;;;1.33;1.23;;;19.10;99.90;;;;;;5071666;28;20505;-80
2021/08/28 08:20:05;;;;;;;1.83;1.53;;;19.20;99.90;;;;;;5083593;28;20515;-79
2021/08/28 08:22:33;;;;;;;1.80;1.67;;;19.20;99.90;;;;;;5083426;28;20450;-80
2021/08/28 08:25:01;;;;;;;1.80;1.70;;;19.20;99.90;;;;;;5074497;28;20584;-81
2021/08/28 08:27:29;;;;;;;1.90;1.80;;;19.20;99.90;;;;;;5072124;28;20435;-84
2021/08/28 08:29:59;;;;;;;1.30;1.20;;;19.20;99.90;;;;;;5075949;28;20938;-84
2021/08/28 08:32:27;;;;;;;1.50;1.33;;;19.20;99.90;;;;;;5078696;28;20454;-83
2021/08/28 08:34:56;;;;;;;2.20;2.10;;;19.00;99.90;;;;;;5054842;28;20536;-82
2021/08/28 08:37:24;;;;;;;1.33;1.23;;;19.10;99.90;;;;;;5081918;28;20487;-82
2021/08/28 08:39:52;;;;;;;2.00;1.80;;;19.10;99.90;;;;;;5081931;28;21186;-81
2021/08/28 08:42:24;;;;;;;11.53;2.40;;;19.10;99.90;;;;;;5074413;28;20504;-84
2021/08/28 08:44:54;;;;;;;1.70;1.53;;;19.20;99.90;;;;;;5071539;28;20478;-83
2021/08/28 08:47:25;;;;;;;1.73;1.33;;;19.20;99.90;;;;;;5082451;28;20443;-78
2021/08/28 08:49:54;;;;;;;1.50;1.40;;;19.30;99.90;;;;;;5073040;28;20491;-80
2021/08/28 08:52:23;;;;;;;1.60;1.50;;;19.30;99.90;;;;;;5071206;28;20454;-80
2021/08/28 08:54:52;;;;;;;1.80;1.67;;;19.40;99.90;;;;;;5083852;28;20465;-80
2021/08/28 08:57:21;;;;;;;1.97;1.40;;;19.40;99.90;;;;;;5078239;28;20458;-80
2021/08/28 08:59:49;;;;;;;1.77;1.67;;;19.40;99.90;;;;;;5069875;28;20462;-80
2021/08/28 09:02:17;;;;;;;3.67;1.77;;;19.40;99.90;;;;;;5073940;28;20465;-77
2021/08/28 09:04:47;;;;;;;3.60;1.60;;;19.40;99.90;;;;;;5071278;28;20559;-78
2021/08/28 09:07:15;;;;;;;2.40;1.70;;;19.50;99.90;;;;;;5080433;28;21016;-78
2021/08/28 09:09:44;;;;;;;1.60;1.50;;;19.50;99.90;;;;;;5077507;28;20449;-77
2021/08/28 09:12:13;;;;;;;1.70;1.60;;;19.40;99.90;;;;;;5081026;28;20450;-78
2021/08/28 09:14:41;;;;;;;1.67;1.40;;;19.40;99.90;;;;;;5078454;28;20468;-76
2021/08/28 09:17:18;;;;;;;3.20;1.40;;;19.40;99.90;;;;;;5071720;28;20965;-77
2021/08/28 09:19:49;;;;;;;1.60;1.50;;;19.40;99.90;;;;;;5069627;28;20481;-76
2021/08/28 09:22:25;;;;;;;1.40;1.30;;;19.40;99.90;;;;;;5056384;28;20518;-77
2021/08/28 09:24:57;;;;;;;1.53;1.37;;;19.40;99.90;;;;;;5073185;28;20471;-76
2021/08/28 09:27:36;;;;;;;1.53;1.43;;;19.30;99.90;;;;;;5077646;28;20454;-78
2021/08/28 09:30:20;;;;;;;2.03;1.40;;;19.30;99.90;;;;;;5075203;28;20445;-78
2021/08/28 09:32:52;;;;;;;1.60;1.50;;;19.40;99.90;;;;;;5053457;28;20430;-78
2021/08/28 09:35:24;;;;;;;1.70;1.60;;;19.40;99.90;;;;;;5065415;28;20474;-78
2021/08/28 09:37:54;;;;;;;1.43;1.33;;;19.40;99.90;;;;;;5069192;28;20476;-77
2021/08/28 09:40:28;;;;;;;1.40;1.30;;;19.40;99.90;;;;;;5082514;28;20501;-78
2021/08/28 09:42:58;;;;;;;1.37;1.20;;;19.40;99.90;;;;;;5049893;28;20455;-78
2021/08/28 09:45:27;;;;;;;1.50;1.40;;;19.40;99.90;;;;;;5087212;28;20485;-79
2021/08/28 09:47:57;;;;;;;1.27;1.20;;;19.40;99.90;;;;;;5077002;28;20957;-77
2021/08/28 09:50:32;;;;;;;1.40;1.30;;;19.40;99.90;;;;;;5061360;28;20888;-77
2021/08/28 09:53:05;;;;;;;1.60;1.50;;;19.30;99.90;;;;;;5068921;28;20451;-78
2021/08/28 09:55:35;;;;;;;2.13;1.70;;;19.30;99.90;;;;;;5051208;28;20486;-77
2021/08/28 09:58:08;;;;;;;2.77;1.50;;;19.20;99.90;;;;;;5070134;28;20455;-75
2021/08/28 10:00:42;;;;;;;1.63;1.53;;;19.30;99.90;;;;;;5061061;28;20473;-75
2021/08/28 10:03:10;;;;;;;1.77;1.67;;;19.20;99.90;;;;;;5078800;28;21059;-75
2021/08/28 10:05:46;;;;;;;2.43;1.70;;;19.10;99.90;;;;;;5072364;28;20474;-76
2021/08/28 10:08:16;;;;;;;3.80;1.73;;;19.00;99.90;;;;;;5072880;28;20454;-78
2021/08/28 10:10:45;;;;;;;2.23;1.50;;;18.90;99.90;;;;;;5073582;28;20466;-78
2021/08/28 10:13:33;;;;;;;2.00;1.80;;;18.90;99.90;;;;;;5076649;28;20476;-76
2021/08/28 10:16:01;;;;;;;1.67;1.57;;;18.90;99.90;;;;;;5077547;28;20453;-79
2021/08/28 10:18:33;;;;;;;2.50;2.13;;;18.70;99.90;;;;;;5077491;28;20465;-78
2021/08/28 10:21:04;;;;;;;6.53;2.03;;;18.60;99.90;;;;;;5070301;28;20852;-77
2021/08/28 10:23:37;;;;;;;2.50;2.30;;;18.60;1.00;;;;;;5059983;28;20492;-77
2021/08/28 10:26:08;;;;;;;3.53;2.60;;;18.60;1.00;;;;;;5079775;28;20987;-77
2021/08/28 10:28:39;;;;;;;3.40;3.10;;;18.60;1.00;;;;;;5056246;28;20451;-76
2021/08/28 10:31:10;;;;;;;2.63;2.43;;;18.70;1.00;;;;;;5050009;28;20439;-77
2021/08/28 10:33:40;;;;;;;2.90;2.50;;;18.60;1.00;;;;;;5074033;28;20466;-77
2021/08/28 10:36:10;;;;;;;3.00;2.70;;;18.60;1.00;;;;;;5068090;28;20449;-82
2021/08/28 10:38:42;;;;;;;2.30;2.10;;;18.70;1.00;;;;;;5062711;28;20229;-79
2021/08/28 10:41:11;;;;;;;2.67;2.50;;;18.60;1.00;;;;;;5071373;28;20470;-82
2021/08/28 10:43:40;;;;;;;2.40;2.20;;;18.50;16.70;;;;;;5066280;28;20911;-81
2021/08/28 10:46:18;;;;;;;3.70;3.40;;;18.50;60.30;;;;;;5076517;28;20458;-82
2021/08/28 10:48:52;;;;;;;2.60;2.40;;;18.50;1.00;;;;;;5074289;28;21131;-81
2021/08/28 10:51:27;;;;;;;3.07;2.87;;;18.50;90.30;;;;;;5052933;28;20532;-81
2021/08/28 10:53:56;;;;;;;3.13;2.33;;;18.50;99.90;;;;;;5069259;28;20473;-79
2021/08/28 10:56:52;;;;;;;2.07;1.90;;;18.50;99.90;;;;;;5087884;28;20477;-80
2021/08/28 10:59:22;;;;;;;2.53;2.33;;;18.40;99.90;;;;;;5075736;28;21214;-80
2021/08/28 11:01:57;;;;;;;2.67;2.23;;;18.40;99.90;;;;;;5072011;28;20471;-77
2021/08/28 11:04:37;;;;;;;2.40;2.20;;;18.40;59.90;;;;;;5077943;28;20481;-78
2021/08/28 11:07:26;;;;;;;3.30;2.67;;;18.50;1.00;;;;;;5081494;28;20450;-79
2021/08/28 11:10:15;;;;;;;2.47;2.27;;;18.40;1.00;;;;;;5079710;28;20468;-79
2021/08/28 11:12:55;;;;;;;2.30;2.10;;;18.50;73.60;;;;;;5077169;28;20446;-79
2021/08/28 11:15:54;;;;;;;1.90;1.80;;;18.50;5.80;;;;;;5080098;28;21031;-79
2021/08/28 11:18:44;;;;;;;3.63;2.10;;;18.50;7.80;;;;;;5076354;28;20449;-79
2021/08/28 11:21:13;;;;;;;2.03;1.80;;;18.50;1.00;;;;;;5063592;28;20474;-78
2021/08/28 11:23:47;;;;;;;1.73;1.63;;;18.40;1.00;;;;;;5080566;28;20534;-79
2021/08/28 11:26:36;;;;;;;1.70;1.60;;;18.30;1.00;;;;;;5060199;28;20453;-80
2021/08/28 11:29:22;;;;;;;1.67;1.57;;;18.20;1.00;;;;;;5080618;28;20465;-79
2021/08/28 11:32:09;;;;;;;1.63;1.53;;;18.20;1.00;;;;;;5081692;28;20456;-78
2021/08/28 11:34:41;;;;;;;1.70;1.50;;;18.20;1.00;;;;;;5059026;28;20578;-77
2021/08/28 11:37:40;;;;;;;4.93;1.93;;;18.20;38.60;;;;;;5080870;28;20664;-80
2021/08/28 11:43:02;;;;;;;2.90;2.40;;;18.10;1.00;;;;;;5085053;27;21447;-79
2021/08/28 11:45:33;;;;;;;3.20;2.77;;;18.20;2.60;;;;;;5065323;28;20554;-80
2021/08/28 11:48:07;;;;;;;1.90;1.80;;;18.10;99.90;;;;;;5068431;28;20458;-78
2021/08/28 11:50:36;;;;;;;3.27;2.00;;;18.10;1.00;;;;;;5066612;28;20453;-79
2021/08/28 11:53:06;;;;;;;2.23;2.03;;;18.00;99.90;;;;;;5064702;28;20842;-80
2021/08/28 11:55:36;;;;;;;2.90;1.50;;;17.90;99.90;;;;;;5068202;28;20527;-81
2021/08/28 11:58:07;;;;;;;2.03;1.60;;;17.90;16.70;;;;;;5064803;28;20452;-79
2021/08/28 12:00:36;;;;;;;1.60;1.50;;;17.80;1.00;;;;;;5066064;28;20452;-81
2021/08/28 12:03:07;;;;;;;1.70;1.60;;;17.70;1.00;;;;;;5067078;28;20529;-81
2021/08/28 12:05:36;;;;;;;1.60;1.50;;;17.70;1.00;;;;;;5066484;28;20505;-79
2021/08/28 12:08:06;;;;;;;1.50;1.40;;;17.70;1.00;;;;;;5065955;28;20461;-81
2021/08/28 12:10:34;;;;;;;0.90;0.90;;;17.60;1.00;;;;;;5066501;28;20465;-79
2021/08/28 12:13:05;;;;;;;1.30;1.20;;;17.70;1.00;;;;;;5071160;28;20510;-79
2021/08/28 12:15:33;;;;;;;1.30;1.20;;;17.60;1.00;;;;;;5066490;28;20483;-80
2021/08/28 12:18:02;;;;;;;1.10;1.00;;;17.50;1.00;;;;;;5063486;28;20516;-79
2021/08/28 12:20:32;;;;;;;1.40;1.30;;;17.50;1.00;;;;;;5067697;28;20466;-81
2021/08/28 12:23:03;;;;;;;3.50;1.17;;;17.50;1.00;;;;;;5067476;28;20560;-79
2021/08/28 12:25:31;;;;;;;1.40;1.30;;;17.50;1.00;;;;;;5069987;28;21172;-79
2021/08/28 12:27:59;;;;;;;1.10;1.00;;;17.60;1.00;;;;;;5066742;28;20828;-80
2021/08/28 12:30:29;;;;;;;0.90;0.90;;;17.50;1.00;;;;;;5062906;28;20462;-81
2021/08/28 12:32:57;;;;;;;1.33;1.23;;;17.40;1.00;;;;;;5063974;28;20469;-80
2021/08/28 12:35:25;;;;;;;1.30;1.17;;;17.40;1.00;;;;;;5069860;28;20481;-82
2021/08/28 12:37:53;;;;;;;1.40;1.30;;;17.40;1.00;;;;;;5064930;28;20466;-81
2021/08/28 12:40:24;;;;;;;1.40;1.27;;;17.30;1.00;;;;;;5059374;28;20449;-82
2021/08/28 12:42:52;;;;;;;1.43;1.20;;;17.40;1.00;;;;;;5064690;28;20474;-78
2021/08/28 12:45:21;;;;;;;1.37;1.27;;;17.40;1.00;;;;;;5064115;28;20477;-81
2021/08/28 12:47:50;;;;;;;1.73;1.40;;;17.50;1.00;;;;;;5068056;28;20503;-79
2021/08/28 12:50:22;;;;;;;1.30;1.20;;;17.60;1.00;;;;;;5064625;28;20449;-81
2021/08/28 12:52:51;;;;;;;1.47;1.37;;;17.50;10.80;;;;;;5062960;28;20934;-81
2021/08/28 12:55:21;;;;;;;1.47;1.37;;;17.40;99.90;;;;;;5056409;28;21048;-80
2021/08/28 12:57:57;;;;;;;1.23;1.13;;;17.30;99.90;;;;;;5052243;28;20488;-81
2021/08/28 13:00:29;;;;;;;2.17;1.43;;;17.30;99.90;;;;;;5051852;28;20454;-80
2021/08/28 13:02:59;;;;;;;1.50;1.40;;;17.40;99.90;;;;;;5053862;28;20823;-82
2021/08/28 13:05:29;;;;;;;1.80;1.63;;;17.60;99.90;;;;;;5053812;28;20481;-81
2021/08/28 13:07:58;;;;;;;1.40;1.30;;;17.60;99.90;;;;;;5052585;28;20598;-81
2021/08/28 13:10:29;;;;;;;1.70;1.60;;;17.70;99.90;;;;;;5052146;28;20455;-82
2021/08/28 13:13:02;;;;;;;2.47;2.20;;;17.80;99.90;;;;;;5051870;28;20455;-81